createdAt,value
2023-05-09T00:00:45.322Z,100.00
2023-05-09T00:01:45.084Z,100.00
2023-05-09T00:02:42.494Z,100.00
2023-05-09T00:03:40.368Z,100.00
2023-05-09T00:04:37.698Z,100.00
2023-05-09T00:05:34.750Z,100.00
2023-05-09T00:06:32.532Z,100.00
2023-05-09T00:07:29.952Z,100.00
2023-05-09T00:08:27.069Z,100.00
2023-05-09T00:09:24.252Z,100.00
2023-05-09T00:10:21.377Z,100.00
2023-05-09T00:11:18.428Z,100.00
2023-05-09T00:12:15.370Z,100.00
2023-05-09T00:13:12.451Z,100.00
2023-05-09T00:14:09.469Z,100.00
2023-05-09T00:15:10.170Z,100.00
2023-05-09T00:16:07.446Z,100.00
2023-05-09T00:17:04.705Z,100.00
2023-05-09T00:18:01.743Z,100.00
2023-05-09T00:18:59.707Z,100.00
2023-05-09T00:19:56.711Z,100.00
2023-05-09T00:20:53.706Z,100.00
2023-05-09T00:21:50.784Z,100.00
2023-05-09T00:22:47.747Z,100.00
2023-05-09T00:23:44.844Z,100.00
2023-05-09T00:24:41.937Z,100.00
2023-05-09T00:25:38.888Z,100.00
2023-05-09T00:26:35.888Z,100.00
2023-05-09T00:27:32.771Z,100.00
2023-05-09T00:28:29.690Z,100.00
2023-05-09T00:29:26.668Z,100.00
2023-05-09T00:30:24.028Z,100.00
2023-05-09T00:31:21.451Z,100.00
2023-05-09T00:32:18.551Z,100.00
2023-05-09T00:33:15.610Z,100.00
2023-05-09T00:34:12.650Z,100.00
2023-05-09T00:35:10.386Z,100.00
2023-05-09T00:36:07.653Z,100.00
2023-05-09T00:37:04.605Z,100.00
2023-05-09T00:38:01.769Z,100.00
2023-05-09T00:38:58.767Z,100.00
2023-05-09T00:39:55.757Z,100.00
2023-05-09T00:40:52.828Z,100.00
2023-05-09T00:41:49.989Z,100.00
2023-05-09T00:42:46.959Z,100.00
2023-05-09T00:43:44.052Z,100.00
2023-05-09T00:44:41.050Z,100.00
2023-05-09T00:45:38.166Z,100.00
2023-05-09T00:46:35.305Z,100.00
2023-05-09T00:47:32.508Z,100.00
2023-05-09T00:48:29.612Z,100.00
2023-05-09T00:49:26.708Z,100.00
2023-05-09T00:50:25.042Z,100.00
2023-05-09T00:51:22.661Z,100.00
2023-05-09T00:52:23.487Z,100.00
2023-05-09T00:53:21.059Z,100.00
2023-05-09T00:54:18.010Z,100.00
2023-05-09T00:55:16.454Z,100.00
2023-05-09T00:56:15.153Z,100.00
2023-05-09T00:57:12.169Z,100.00
2023-05-09T00:58:09.211Z,100.00
2023-05-09T00:59:09.298Z,100.00
2023-05-09T01:00:07.047Z,100.00
2023-05-09T01:01:04.778Z,100.00
2023-05-09T01:02:01.817Z,100.00
2023-05-09T01:02:59.285Z,100.00
2023-05-09T01:03:56.533Z,100.00
2023-05-09T01:04:53.831Z,100.00
2023-05-09T01:05:59.122Z,100.00
2023-05-09T01:07:04.876Z,100.00
2023-05-09T01:08:08.206Z,100.00
2023-05-09T01:09:12.530Z,100.00
2023-05-09T01:10:28.553Z,100.00
2023-05-09T01:12:10.067Z,100.00
2023-05-09T01:13:19.561Z,100.00
2023-05-09T01:14:29.330Z,100.00
2023-05-09T01:15:47.427Z,100.00
2023-05-09T01:17:04.971Z,100.00
2023-05-09T01:18:09.917Z,100.00
2023-05-09T01:19:28.145Z,100.00
2023-05-09T01:20:34.402Z,100.00
2023-05-09T01:21:32.620Z,100.00
2023-05-09T01:22:32.292Z,100.00
2023-05-09T01:23:47.331Z,100.00
2023-05-09T01:25:02.861Z,100.00
2023-05-09T01:26:06.681Z,100.00
2023-05-09T01:27:22.771Z,100.00
2023-05-09T01:28:40.453Z,100.00
2023-05-09T01:29:46.652Z,100.00
2023-05-09T01:30:46.222Z,100.00
2023-05-09T01:31:44.776Z,100.00
2023-05-09T01:32:43.391Z,100.00
2023-05-09T01:33:42.307Z,100.00
2023-05-09T01:34:41.541Z,100.00
2023-05-09T01:35:40.032Z,100.00
2023-05-09T01:36:38.651Z,100.00
2023-05-09T01:37:36.930Z,100.00
2023-05-09T01:38:35.050Z,100.00
2023-05-09T01:39:33.980Z,100.00
2023-05-09T01:40:33.153Z,100.00
2023-05-09T01:41:32.295Z,100.00
2023-05-09T01:42:39.091Z,100.00
2023-05-09T01:43:37.025Z,100.00
2023-05-09T01:44:39.169Z,100.00
2023-05-09T01:45:37.202Z,100.00
2023-05-09T01:46:35.552Z,100.00
2023-05-09T01:47:32.749Z,100.00
2023-05-09T01:48:30.452Z,100.00
2023-05-09T01:49:29.951Z,100.00
2023-05-09T01:50:27.536Z,100.00
2023-05-09T01:51:25.386Z,100.00
2023-05-09T01:52:23.312Z,100.00
2023-05-09T01:53:20.468Z,100.00
2023-05-09T01:54:18.130Z,100.00
2023-05-09T01:55:16.432Z,100.00
2023-05-09T01:56:13.730Z,100.00
2023-05-09T01:57:11.672Z,100.00
2023-05-09T01:58:08.931Z,100.00
2023-05-09T01:59:07.269Z,100.00
2023-05-09T02:00:08.191Z,100.00
2023-05-09T02:01:05.996Z,100.00
2023-05-09T02:02:07.326Z,100.00
2023-05-09T02:03:04.618Z,100.00
2023-05-09T02:04:02.727Z,100.00
2023-05-09T02:04:59.670Z,100.00
2023-05-09T02:05:57.340Z,100.00
2023-05-09T02:06:54.784Z,100.00
2023-05-09T02:07:52.470Z,100.00
2023-05-09T02:08:50.152Z,100.00
2023-05-09T02:09:47.730Z,100.00
2023-05-09T02:10:45.092Z,100.00
2023-05-09T02:11:42.090Z,100.00
2023-05-09T02:12:39.305Z,100.00
2023-05-09T02:13:38.590Z,100.00
2023-05-09T02:14:35.929Z,100.00
2023-05-09T02:15:33.170Z,100.00
2023-05-09T02:16:30.410Z,100.00
2023-05-09T02:17:31.061Z,100.00
2023-05-09T02:18:29.897Z,100.00
2023-05-09T02:19:27.112Z,100.00
2023-05-09T02:20:24.072Z,100.00
2023-05-09T02:21:21.087Z,100.00
2023-05-09T02:22:18.172Z,100.00
2023-05-09T02:23:15.278Z,100.00
2023-05-09T02:24:12.282Z,100.00
2023-05-09T02:25:11.671Z,100.00
2023-05-09T02:26:08.626Z,100.00
2023-05-09T02:27:06.328Z,100.00
2023-05-09T02:28:03.530Z,100.00
2023-05-09T02:29:00.968Z,100.00
2023-05-09T02:30:00.292Z,100.00
2023-05-09T02:30:59.128Z,100.00
2023-05-09T02:31:56.504Z,100.00
2023-05-09T02:33:02.738Z,100.00
2023-05-09T02:33:59.908Z,100.00
2023-05-09T02:34:58.528Z,100.00
2023-05-09T02:35:55.835Z,100.00
2023-05-09T02:36:52.810Z,100.00
2023-05-09T02:37:49.886Z,100.00
2023-05-09T02:38:47.147Z,100.00
2023-05-09T02:39:44.568Z,100.00
2023-05-09T02:40:43.634Z,100.00
2023-05-09T02:41:40.657Z,100.00
2023-05-09T02:42:37.810Z,100.00
2023-05-09T02:43:34.766Z,100.00
2023-05-09T02:44:31.724Z,100.00
2023-05-09T02:45:28.802Z,100.00
2023-05-09T02:46:26.403Z,100.00
2023-05-09T02:47:23.526Z,100.00
2023-05-09T02:48:20.577Z,100.00
2023-05-09T02:49:31.531Z,100.00
2023-05-09T02:50:29.674Z,100.00
2023-05-09T02:51:26.792Z,100.00
2023-05-09T02:52:23.770Z,100.00
2023-05-09T02:53:20.890Z,100.00
2023-05-09T02:54:18.520Z,100.00
2023-05-09T02:55:16.145Z,100.00
2023-05-09T02:56:13.393Z,100.00
2023-05-09T02:57:10.421Z,100.00
2023-05-09T02:58:14.056Z,100.00
2023-05-09T02:59:11.489Z,100.00
2023-05-09T03:00:09.927Z,100.00
2023-05-09T03:01:06.940Z,100.00
2023-05-09T03:02:03.923Z,100.00
2023-05-09T03:03:01.034Z,100.00
2023-05-09T03:03:58.137Z,100.00
2023-05-09T03:04:55.180Z,100.00
2023-05-09T03:05:52.194Z,100.00
2023-05-09T03:06:49.798Z,100.00
2023-05-09T03:07:46.851Z,100.00
2023-05-09T03:08:43.831Z,100.00
2023-05-09T03:09:41.388Z,100.00
2023-05-09T03:10:38.464Z,100.00
2023-05-09T03:11:37.036Z,100.00
2023-05-09T03:12:34.010Z,100.00
2023-05-09T03:13:30.925Z,100.00
2023-05-09T03:14:27.908Z,100.00
2023-05-09T03:15:24.868Z,100.00
2023-05-09T03:16:21.989Z,100.00
2023-05-09T03:17:21.574Z,100.00
2023-05-09T03:18:19.170Z,100.00
2023-05-09T03:19:16.149Z,100.00
2023-05-09T03:20:13.203Z,100.00
2023-05-09T03:21:10.268Z,100.00
2023-05-09T03:22:07.239Z,100.00
2023-05-09T03:23:04.201Z,100.00
2023-05-09T03:24:01.232Z,100.00
2023-05-09T03:24:58.191Z,100.00
2023-05-09T03:25:55.306Z,100.00
2023-05-09T03:26:52.251Z,100.00
2023-05-09T03:27:49.559Z,100.00
2023-05-09T03:28:47.187Z,100.00
2023-05-09T03:29:44.110Z,100.00
2023-05-09T03:30:41.214Z,100.00
2023-05-09T03:31:38.352Z,100.00
2023-05-09T03:32:35.593Z,100.00
2023-05-09T03:33:32.810Z,100.00
2023-05-09T03:34:29.800Z,100.00
2023-05-09T03:35:26.812Z,100.00
2023-05-09T03:36:23.893Z,100.00
2023-05-09T03:37:20.969Z,100.00
2023-05-09T03:38:17.919Z,100.00
2023-05-09T03:39:14.997Z,100.00
2023-05-09T03:40:12.319Z,100.00
2023-05-09T03:41:09.704Z,100.00
2023-05-09T03:42:06.692Z,100.00
2023-05-09T03:43:03.650Z,100.00
2023-05-09T03:44:00.669Z,100.00
2023-05-09T03:44:58.026Z,100.00
2023-05-09T03:45:55.008Z,100.00
2023-05-09T03:46:52.242Z,100.00
2023-05-09T03:47:49.371Z,100.00
2023-05-09T03:48:46.376Z,100.00
2023-05-09T03:49:43.352Z,100.00
2023-05-09T03:50:40.399Z,100.00
2023-05-09T03:51:38.526Z,100.00
2023-05-09T03:52:37.530Z,100.00
2023-05-09T03:53:34.473Z,100.00
2023-05-09T03:54:31.475Z,100.00
2023-05-09T03:55:28.656Z,100.00
2023-05-09T03:56:26.911Z,100.00
2023-05-09T03:57:23.885Z,100.00
2023-05-09T03:58:20.962Z,100.00
2023-05-09T03:59:17.930Z,100.00
2023-05-09T04:00:15.552Z,100.00
2023-05-09T04:01:12.571Z,100.00
2023-05-09T04:02:09.634Z,100.00
2023-05-09T04:03:06.703Z,100.00
2023-05-09T04:04:04.093Z,100.00
2023-05-09T04:05:01.525Z,100.00
2023-05-09T04:05:58.753Z,100.00
2023-05-09T04:06:55.737Z,100.00
2023-05-09T04:07:52.776Z,100.00
2023-05-09T04:08:49.937Z,100.00
2023-05-09T04:09:47.070Z,100.00
2023-05-09T04:10:44.053Z,100.00
2023-05-09T04:11:41.013Z,100.00
2023-05-09T04:12:37.952Z,100.00
2023-05-09T04:13:35.089Z,100.00
2023-05-09T04:14:32.169Z,100.00
2023-05-09T04:15:29.161Z,100.00
2023-05-09T04:16:26.200Z,100.00
2023-05-09T04:17:23.200Z,100.00
2023-05-09T04:18:20.275Z,100.00
2023-05-09T04:19:17.753Z,100.00
2023-05-09T04:20:15.302Z,100.00
2023-05-09T04:21:12.336Z,100.00
2023-05-09T04:22:09.379Z,100.00
2023-05-09T04:23:06.796Z,100.00
2023-05-09T04:24:03.936Z,100.00
2023-05-09T04:25:01.971Z,100.00
2023-05-09T04:25:58.958Z,100.00
2023-05-09T04:26:56.095Z,100.00
2023-05-09T04:27:53.253Z,100.00
2023-05-09T04:28:50.353Z,100.00
2023-05-09T04:29:47.276Z,100.00
2023-05-09T04:30:44.623Z,100.00
2023-05-09T04:31:41.743Z,100.00
2023-05-09T04:32:39.184Z,100.00
2023-05-09T04:33:36.752Z,100.00
2023-05-09T04:34:34.054Z,100.00
2023-05-09T04:35:30.984Z,100.00
2023-05-09T04:36:28.120Z,100.00
2023-05-09T04:37:25.162Z,100.00
2023-05-09T04:38:22.159Z,100.00
2023-05-09T04:39:19.753Z,100.00
2023-05-09T04:40:17.159Z,100.00
2023-05-09T04:41:14.329Z,100.00
2023-05-09T04:42:11.891Z,100.00
2023-05-09T04:43:08.879Z,100.00
2023-05-09T04:44:06.020Z,100.00
2023-05-09T04:45:03.394Z,100.00
2023-05-09T04:46:00.351Z,100.00
2023-05-09T04:46:58.333Z,100.00
2023-05-09T04:47:55.364Z,100.00
2023-05-09T04:48:52.331Z,100.00
2023-05-09T04:49:49.336Z,100.00
2023-05-09T04:50:48.716Z,100.00
2023-05-09T04:51:45.820Z,100.00
2023-05-09T04:52:42.815Z,100.00
2023-05-09T04:53:39.895Z,100.00
2023-05-09T04:54:36.886Z,100.00
2023-05-09T04:55:33.877Z,100.00
2023-05-09T04:56:30.776Z,100.00
2023-05-09T04:57:27.833Z,100.00
2023-05-09T04:58:25.993Z,100.00
2023-05-09T04:59:23.035Z,100.00
2023-05-09T05:00:20.274Z,100.00
2023-05-09T05:01:17.479Z,100.00
2023-05-09T05:02:14.575Z,100.00
2023-05-09T05:03:11.696Z,100.00
2023-05-09T05:04:08.682Z,100.00
2023-05-09T05:05:11.448Z,100.00
2023-05-09T05:06:08.834Z,100.00
2023-05-09T05:07:05.851Z,100.00
2023-05-09T05:08:02.858Z,100.00
2023-05-09T05:08:59.854Z,100.00
2023-05-09T05:09:56.782Z,100.00
2023-05-09T05:10:53.775Z,100.00
2023-05-09T05:12:00.858Z,100.00
2023-05-09T05:12:59.581Z,100.00
2023-05-09T05:13:56.513Z,100.00
2023-05-09T05:14:53.507Z,100.00
2023-05-09T05:15:50.559Z,100.00
2023-05-09T05:16:47.896Z,100.00
2023-05-09T05:17:44.949Z,100.00
2023-05-09T05:18:41.980Z,100.00
2023-05-09T05:19:38.926Z,100.00
2023-05-09T05:20:35.917Z,100.00
2023-05-09T05:21:33.138Z,100.00
2023-05-09T05:22:32.591Z,100.00
2023-05-09T05:23:29.771Z,100.00
2023-05-09T05:24:26.770Z,100.00
2023-05-09T05:25:23.844Z,100.00
2023-05-09T05:26:21.296Z,100.00
2023-05-09T05:27:18.335Z,100.00
2023-05-09T05:28:15.353Z,100.00
2023-05-09T05:29:12.324Z,100.00
2023-05-09T05:30:09.760Z,100.00
2023-05-09T05:31:06.819Z,100.00
2023-05-09T05:32:04.035Z,100.00
2023-05-09T05:33:01.348Z,100.00
2023-05-09T05:33:58.316Z,100.00
2023-05-09T05:34:55.570Z,100.00
2023-05-09T05:35:52.536Z,100.00
2023-05-09T05:36:49.518Z,100.00
2023-05-09T05:37:48.959Z,100.00
2023-05-09T05:38:46.233Z,100.00
2023-05-09T05:39:43.275Z,100.00
2023-05-09T05:40:40.363Z,100.00
2023-05-09T05:41:37.400Z,100.00
2023-05-09T05:42:34.651Z,100.00
2023-05-09T05:43:31.727Z,100.00
2023-05-09T05:44:28.812Z,100.00
2023-05-09T05:45:26.255Z,100.00
2023-05-09T05:46:23.281Z,100.00
2023-05-09T05:47:20.450Z,100.00
2023-05-09T05:48:18.026Z,100.00
2023-05-09T05:49:14.968Z,100.00
2023-05-09T05:50:13.874Z,100.00
2023-05-09T05:51:10.818Z,100.00
2023-05-09T05:52:07.850Z,100.00
2023-05-09T05:53:04.887Z,100.00
2023-05-09T05:54:01.849Z,100.00
2023-05-09T05:54:58.932Z,100.00
2023-05-09T05:55:56.008Z,100.00
2023-05-09T05:56:53.040Z,100.00
2023-05-09T05:57:50.183Z,100.00
2023-05-09T05:58:47.233Z,100.00
2023-05-09T05:59:44.256Z,100.00
2023-05-09T06:00:41.507Z,100.00
2023-05-09T06:01:38.603Z,100.00
2023-05-09T06:02:35.784Z,100.00
2023-05-09T06:03:32.918Z,100.00
2023-05-09T06:04:29.942Z,100.00
2023-05-09T06:05:26.930Z,100.00
2023-05-09T06:06:24.191Z,100.00
2023-05-09T06:07:21.284Z,100.00
2023-05-09T06:08:18.342Z,100.00
2023-05-09T06:09:15.335Z,100.00
2023-05-09T06:10:12.475Z,100.00
2023-05-09T06:11:09.526Z,100.00
2023-05-09T06:12:07.084Z,100.00
2023-05-09T06:13:04.214Z,100.00
2023-05-09T06:14:01.225Z,100.00
2023-05-09T06:14:58.228Z,100.00
2023-05-09T06:16:04.648Z,100.00
2023-05-09T06:17:09.105Z,100.00
2023-05-09T06:18:06.514Z,100.00
2023-05-09T06:19:03.644Z,100.00
2023-05-09T06:20:00.694Z,100.00
2023-05-09T06:20:57.842Z,100.00
2023-05-09T06:21:54.867Z,100.00
2023-05-09T06:22:52.188Z,100.00
2023-05-09T06:24:05.924Z,100.00
2023-05-09T06:25:06.964Z,100.00
2023-05-09T06:26:05.993Z,100.00
2023-05-09T06:27:03.324Z,100.00
2023-05-09T06:28:00.409Z,100.00
2023-05-09T06:28:57.525Z,100.00
2023-05-09T06:29:54.627Z,100.00
2023-05-09T06:30:51.617Z,100.00
2023-05-09T06:31:48.602Z,100.00
2023-05-09T06:32:45.702Z,100.00
2023-05-09T06:33:42.729Z,100.00
2023-05-09T06:34:39.750Z,100.00
2023-05-09T06:35:36.769Z,100.00
2023-05-09T06:36:37.054Z,100.00
2023-05-09T06:37:34.729Z,100.00
2023-05-09T06:38:32.370Z,100.00
2023-05-09T06:39:29.502Z,100.00
2023-05-09T06:40:26.698Z,100.00
2023-05-09T06:41:23.763Z,100.00
2023-05-09T06:42:20.832Z,100.00
2023-05-09T06:43:17.860Z,100.00
2023-05-09T06:44:14.905Z,100.00
2023-05-09T06:45:12.371Z,100.00
2023-05-09T06:46:09.646Z,100.00
2023-05-09T06:47:06.746Z,100.00
2023-05-09T06:48:03.960Z,100.00
2023-05-09T06:49:02.766Z,100.00
2023-05-09T06:50:00.009Z,100.00
2023-05-09T06:50:56.992Z,100.00
2023-05-09T06:51:54.113Z,100.00
2023-05-09T06:52:51.195Z,100.00
2023-05-09T06:53:48.193Z,100.00
2023-05-09T06:54:45.270Z,100.00
2023-05-09T06:55:42.749Z,100.00
2023-05-09T06:56:39.760Z,100.00
2023-05-09T06:57:37.292Z,100.00
2023-05-09T06:58:34.300Z,100.00
2023-05-09T06:59:31.433Z,100.00
2023-05-09T07:00:28.520Z,100.00
2023-05-09T07:01:25.544Z,100.00
2023-05-09T07:02:22.650Z,100.00
2023-05-09T07:03:19.837Z,100.00
2023-05-09T07:04:16.900Z,100.00
2023-05-09T07:05:14.057Z,100.00
2023-05-09T07:06:11.212Z,100.00
2023-05-09T07:07:08.166Z,100.00
2023-05-09T07:08:05.229Z,100.00
2023-05-09T07:09:02.382Z,100.00
2023-05-09T07:10:10.447Z,100.00
2023-05-09T07:11:10.985Z,100.00
2023-05-09T07:12:08.111Z,100.00
2023-05-09T07:13:05.591Z,100.00
2023-05-09T07:14:03.559Z,100.00
2023-05-09T07:15:01.159Z,100.00
2023-05-09T07:15:58.204Z,100.00
2023-05-09T07:17:05.228Z,100.00
2023-05-09T07:18:11.210Z,100.00
2023-05-09T07:19:09.634Z,100.00
2023-05-09T07:20:07.493Z,100.00
2023-05-09T07:21:06.812Z,100.00
2023-05-09T07:22:03.925Z,100.00
2023-05-09T07:23:01.049Z,100.00
2023-05-09T07:23:58.133Z,100.00
2023-05-09T07:24:55.317Z,100.00
2023-05-09T07:25:59.130Z,100.00
2023-05-09T07:26:56.135Z,100.00
2023-05-09T07:27:53.242Z,100.00
2023-05-09T07:28:50.299Z,100.00
2023-05-09T07:29:51.630Z,100.00
2023-05-09T07:30:48.704Z,100.00
2023-05-09T07:31:45.964Z,100.00
2023-05-09T07:32:43.030Z,100.00
2023-05-09T07:33:40.029Z,100.00
2023-05-09T07:34:37.088Z,100.00
2023-05-09T07:35:34.090Z,100.00
2023-05-09T07:36:31.476Z,100.00
2023-05-09T07:37:29.338Z,100.00
2023-05-09T07:38:26.650Z,100.00
2023-05-09T07:39:23.632Z,100.00
2023-05-09T07:40:20.674Z,100.00
2023-05-09T07:41:17.730Z,100.00
2023-05-09T07:42:14.753Z,100.00
2023-05-09T07:43:11.731Z,100.00
2023-05-09T07:44:09.797Z,100.00
2023-05-09T07:45:07.682Z,100.00
2023-05-09T07:46:05.085Z,100.00
2023-05-09T07:47:02.903Z,100.00
2023-05-09T07:47:59.969Z,100.00
2023-05-09T07:48:57.115Z,100.00
2023-05-09T07:49:54.103Z,100.00
2023-05-09T07:50:51.154Z,100.00
2023-05-09T07:51:48.269Z,100.00
2023-05-09T07:52:45.333Z,100.00
2023-05-09T07:53:42.326Z,100.00
2023-05-09T07:54:39.417Z,100.00
2023-05-09T07:55:36.680Z,100.00
2023-05-09T07:56:33.669Z,100.00
2023-05-09T07:57:30.647Z,100.00
2023-05-09T07:58:27.741Z,100.00
2023-05-09T07:59:24.732Z,100.00
2023-05-09T08:00:24.146Z,100.00
2023-05-09T08:01:21.327Z,100.00
2023-05-09T08:02:18.394Z,100.00
2023-05-09T08:03:15.645Z,100.00
2023-05-09T08:04:13.038Z,100.00
2023-05-09T08:05:11.866Z,100.00
2023-05-09T08:06:09.268Z,100.00
2023-05-09T08:07:07.890Z,100.00
2023-05-09T08:08:05.417Z,100.00
2023-05-09T08:09:02.600Z,100.00
2023-05-09T08:09:59.652Z,100.00
2023-05-09T08:10:56.828Z,100.00
2023-05-09T08:11:53.971Z,100.00
2023-05-09T08:12:51.511Z,100.00
2023-05-09T08:13:48.609Z,100.00
2023-05-09T08:14:45.915Z,100.00
2023-05-09T08:15:42.932Z,100.00
2023-05-09T08:16:40.139Z,100.00
2023-05-09T08:18:39.347Z,100.00
2023-05-09T08:19:36.301Z,100.00
2023-05-09T08:20:34.755Z,100.00
2023-05-09T08:21:31.833Z,100.00
2023-05-09T08:22:28.812Z,100.00
2023-05-09T08:23:26.853Z,100.00
2023-05-09T08:24:23.869Z,100.00
2023-05-09T08:25:21.540Z,100.00
2023-05-09T08:26:18.692Z,100.00
2023-05-09T08:27:15.870Z,100.00
2023-05-09T08:28:12.816Z,100.00
2023-05-09T08:29:09.913Z,100.00
2023-05-09T08:30:07.737Z,100.00
2023-05-09T08:31:04.784Z,100.00
2023-05-09T08:32:01.794Z,100.00
2023-05-09T08:32:58.888Z,100.00
2023-05-09T08:33:56.074Z,100.00
2023-05-09T08:34:53.352Z,100.00
2023-05-09T08:35:53.871Z,100.00
2023-05-09T08:36:50.837Z,100.00
2023-05-09T08:37:48.248Z,100.00
2023-05-09T08:38:45.350Z,100.00
2023-05-09T08:39:42.471Z,100.00
2023-05-09T08:40:41.415Z,100.00
2023-05-09T08:41:39.434Z,100.00
2023-05-09T08:42:40.445Z,100.00
2023-05-09T08:43:38.802Z,100.00
2023-05-09T08:44:36.155Z,100.00
2023-05-09T08:45:36.194Z,100.00
2023-05-09T08:46:37.450Z,100.00
2023-05-09T08:47:41.029Z,100.00
2023-05-09T08:48:38.619Z,100.00
2023-05-09T08:49:35.919Z,100.00
2023-05-09T08:50:33.357Z,100.00
2023-05-09T08:51:32.474Z,100.00
2023-05-09T08:52:31.834Z,100.00
2023-05-09T08:53:29.216Z,100.00
2023-05-09T08:54:26.288Z,100.00
2023-05-09T08:55:23.380Z,100.00
2023-05-09T08:56:21.530Z,100.00
2023-05-09T08:57:18.553Z,100.00
2023-05-09T08:58:16.936Z,100.00
2023-05-09T08:59:14.592Z,100.00
2023-05-09T09:00:13.805Z,100.00
2023-05-09T09:01:13.700Z,100.00
2023-05-09T09:02:14.749Z,100.00
2023-05-09T09:03:11.888Z,100.00
2023-05-09T09:04:14.714Z,100.00
2023-05-09T09:05:23.818Z,100.00
2023-05-09T09:06:26.372Z,100.00
2023-05-09T09:07:24.190Z,100.00
2023-05-09T09:08:23.187Z,100.00
2023-05-09T09:09:20.880Z,100.00
2023-05-09T09:10:18.092Z,100.00
2023-05-09T09:11:15.533Z,100.00
2023-05-09T09:12:12.582Z,100.00
2023-05-09T09:13:10.635Z,100.00
2023-05-09T09:14:22.394Z,100.00
2023-05-09T09:15:20.177Z,100.00
2023-05-09T09:16:21.074Z,100.00
2023-05-09T09:17:21.139Z,100.00
2023-05-09T09:18:23.966Z,100.00
2023-05-09T09:19:23.079Z,100.00
2023-05-09T09:20:22.900Z,100.00
2023-05-09T09:21:21.030Z,100.00
2023-05-09T09:22:20.112Z,100.00
2023-05-09T09:23:21.157Z,100.00
2023-05-09T09:24:22.880Z,100.00
2023-05-09T09:25:19.909Z,100.00
2023-05-09T09:26:16.893Z,100.00
2023-05-09T09:27:14.094Z,100.00
2023-05-09T09:28:11.615Z,99.48
2023-05-09T09:29:11.834Z,100.00
2023-05-09T09:30:12.327Z,100.00
2023-05-09T09:31:23.258Z,100.00
2023-05-09T09:32:20.256Z,100.00
2023-05-09T09:33:24.682Z,79.35
2023-05-09T09:34:23.293Z,78.71
2023-05-09T09:35:20.738Z,80.60
2023-05-09T09:36:26.756Z,78.87
2023-05-09T09:37:23.920Z,72.36
2023-05-09T09:38:21.819Z,72.83
2023-05-09T09:39:18.853Z,73.65
2023-05-09T09:40:16.716Z,72.54
2023-05-09T09:41:13.993Z,74.92
2023-05-09T09:42:12.406Z,70.31
2023-05-09T09:43:10.036Z,67.43
2023-05-09T09:44:08.821Z,63.99
2023-05-09T09:45:14.064Z,65.60
2023-05-09T09:46:11.221Z,65.15
2023-05-09T09:47:11.659Z,65.89
2023-05-09T09:48:09.182Z,64.58
2023-05-09T09:49:06.266Z,67.02
2023-05-09T09:50:14.142Z,67.29
2023-05-09T09:51:12.072Z,63.99
2023-05-09T09:52:12.189Z,65.85
2023-05-09T09:53:09.231Z,67.47
2023-05-09T09:54:13.301Z,65.82
2023-05-09T09:55:10.437Z,66.48
2023-05-09T09:56:08.365Z,66.09
2023-05-09T09:57:05.400Z,68.15
2023-05-09T09:58:02.394Z,67.11
2023-05-09T09:59:16.015Z,67.58
2023-05-09T10:00:15.059Z,66.45
2023-05-09T10:01:14.338Z,69.20
2023-05-09T10:02:12.657Z,65.70
2023-05-09T10:03:15.227Z,67.68
2023-05-09T10:04:16.974Z,67.45
2023-05-09T10:05:21.934Z,68.31
2023-05-09T10:06:18.999Z,67.27
2023-05-09T10:07:15.976Z,66.46
2023-05-09T10:08:13.107Z,66.34
2023-05-09T10:09:10.155Z,68.33
2023-05-09T10:10:10.202Z,67.65
2023-05-09T10:11:07.705Z,66.18
2023-05-09T10:12:06.666Z,66.42
2023-05-09T10:13:05.931Z,66.67
2023-05-09T10:14:02.953Z,68.22
2023-05-09T10:15:00.016Z,67.20
2023-05-09T10:15:58.460Z,65.72
2023-05-09T10:16:57.019Z,65.56
2023-05-09T10:17:58.580Z,64.28
2023-05-09T10:18:55.940Z,66.09
2023-05-09T10:19:53.513Z,64.65
2023-05-09T10:20:50.636Z,65.27
2023-05-09T10:21:53.073Z,62.58
2023-05-09T10:22:52.353Z,64.88
2023-05-09T10:23:52.535Z,61.30
2023-05-09T10:25:02.930Z,62.34
2023-05-09T10:26:11.554Z,62.00
2023-05-09T10:27:12.393Z,62.25
2023-05-09T10:28:13.020Z,61.62
2023-05-09T10:29:11.050Z,61.95
2023-05-09T10:30:11.393Z,62.21
2023-05-09T10:31:29.656Z,62.82
2023-05-09T10:33:03.456Z,63.65
2023-05-09T10:34:02.456Z,62.54
2023-05-09T10:35:05.107Z,60.35
2023-05-09T10:36:03.778Z,61.44
2023-05-09T10:37:01.212Z,63.09
2023-05-09T10:37:58.379Z,63.03
2023-05-09T10:38:56.540Z,61.33
2023-05-09T10:39:55.713Z,61.03
2023-05-09T10:40:53.589Z,62.68
2023-05-09T10:41:51.152Z,62.95
2023-05-09T10:42:48.150Z,63.08
2023-05-09T10:43:46.099Z,63.85
2023-05-09T10:44:43.498Z,62.72
2023-05-09T10:45:41.169Z,62.31
2023-05-09T10:46:38.412Z,64.11
2023-05-09T10:47:36.083Z,63.76
2023-05-09T10:48:33.878Z,63.29
2023-05-09T10:49:31.126Z,63.25
2023-05-09T10:50:28.322Z,63.72
2023-05-09T10:51:25.393Z,64.24
2023-05-09T10:52:23.155Z,63.10
2023-05-09T10:53:22.011Z,63.96
2023-05-09T10:54:30.879Z,63.60
2023-05-09T10:55:56.871Z,64.25
2023-05-09T10:56:54.331Z,62.85
2023-05-09T10:57:54.374Z,62.47
2023-05-09T10:58:51.365Z,63.82
2023-05-09T10:59:54.852Z,64.70
2023-05-09T11:00:53.496Z,62.96
2023-05-09T11:02:01.253Z,61.95
2023-05-09T11:03:08.344Z,59.43
2023-05-09T11:04:13.437Z,60.95
2023-05-09T11:05:20.506Z,61.27
2023-05-09T11:06:49.674Z,61.63
2023-05-09T11:07:46.816Z,60.96
2023-05-09T11:08:43.811Z,61.00
2023-05-09T11:09:41.759Z,59.12
2023-05-09T11:10:43.154Z,59.88
2023-05-09T11:11:52.153Z,60.29
2023-05-09T11:12:59.833Z,61.33
2023-05-09T11:13:58.667Z,60.30
2023-05-09T11:15:05.610Z,60.72
2023-05-09T11:16:02.673Z,62.69
2023-05-09T11:17:04.504Z,61.12
2023-05-09T11:18:09.687Z,60.28
2023-05-09T11:19:06.970Z,61.09
2023-05-09T11:20:09.019Z,59.85
2023-05-09T11:21:09.780Z,60.44
2023-05-09T11:22:22.413Z,60.14
2023-05-09T11:23:19.982Z,62.53
2023-05-09T11:24:17.879Z,59.57
2023-05-09T11:25:15.839Z,59.55
2023-05-09T11:26:15.234Z,55.37
2023-05-09T11:27:16.008Z,56.29
2023-05-09T11:28:27.013Z,57.17
2023-05-09T11:29:28.315Z,58.34
2023-05-09T11:30:36.337Z,56.96
2023-05-09T11:31:33.503Z,57.79
2023-05-09T11:32:34.688Z,55.92
2023-05-09T11:33:31.752Z,54.80
2023-05-09T11:34:29.663Z,56.77
2023-05-09T11:35:27.585Z,58.00
2023-05-09T11:36:29.711Z,55.03
2023-05-09T11:37:31.453Z,55.37
2023-05-09T11:38:42.135Z,54.14
2023-05-09T11:40:05.377Z,55.09
2023-05-09T11:41:02.519Z,53.65
2023-05-09T11:42:00.236Z,53.18
2023-05-09T11:42:58.977Z,52.82
2023-05-09T11:43:57.174Z,53.17
2023-05-09T11:44:54.675Z,52.30
2023-05-09T11:45:51.724Z,52.25
2023-05-09T11:46:49.557Z,53.07
2023-05-09T11:47:50.919Z,52.09
2023-05-09T11:48:49.231Z,52.82
2023-05-09T11:49:46.287Z,53.08
2023-05-09T11:50:43.328Z,52.92
2023-05-09T11:51:40.952Z,51.60
2023-05-09T11:52:38.683Z,52.85
2023-05-09T11:53:45.289Z,52.23
2023-05-09T11:54:42.516Z,53.36
2023-05-09T11:55:41.538Z,52.21
2023-05-09T11:56:40.835Z,52.52
2023-05-09T11:57:42.917Z,50.89
2023-05-09T11:58:40.004Z,52.32
2023-05-09T11:59:37.219Z,50.92
2023-05-09T12:00:34.183Z,51.31
2023-05-09T12:01:31.412Z,51.88
2023-05-09T12:02:28.907Z,52.16
2023-05-09T12:03:26.780Z,52.13
2023-05-09T12:04:24.152Z,52.46
2023-05-09T12:05:23.071Z,52.93
2023-05-09T12:06:21.270Z,52.57
2023-05-09T12:07:19.090Z,50.29
2023-05-09T12:08:16.736Z,49.20
2023-05-09T12:09:15.002Z,51.31
2023-05-09T12:10:14.344Z,48.36
2023-05-09T12:11:11.565Z,49.74
2023-05-09T12:12:12.889Z,48.32
2023-05-09T12:13:10.857Z,48.42
2023-05-09T12:14:07.879Z,47.90
2023-05-09T12:15:09.712Z,48.14
2023-05-09T12:16:09.416Z,45.39
2023-05-09T12:17:11.428Z,44.30
2023-05-09T12:18:11.903Z,42.88
2023-05-09T12:19:10.367Z,43.13
2023-05-09T12:20:11.244Z,43.13